Time;durP1;ratioP1;P1;durP2;ratioP2;P2;SDS_P1;SDS_P2;PMS_P1;PMS_P2;Temp;Humidity;BMP_temperature;BMP_pressure;BME280_temperature;BME280_humidity;BME280_pressure;Samples;Min_cycle;Max_cycle;Signal;HPM_P1;HPM_P2
2022/01/09 00:00:49;;;;;;;;;;;1.80;99.90;;;;;;6180839;23;19974;-75
2022/01/09 00:03:16;;;;;;;;;;;1.70;99.90;;;;;;6154867;23;19924;-75
2022/01/09 00:05:43;;;;;;;;;;;1.70;99.90;;;;;;6181727;23;19920;-77
2022/01/09 00:08:09;;;;;;;;;;;1.70;99.90;;;;;;6155298;23;19927;-77
2022/01/09 00:10:37;;;;;;;;;;;1.70;99.90;;;;;;6155075;23;19928;-78
2022/01/09 00:13:05;;;;;;;;;;;1.70;99.90;;;;;;6181092;23;20345;-78
2022/01/09 00:15:32;;;;;;;;;;;1.70;99.90;;;;;;6155203;23;20235;-78
2022/01/09 00:17:59;;;;;;;;;;;1.70;99.90;;;;;;6181179;23;20265;-78
2022/01/09 00:20:26;;;;;;;;;;;1.80;99.90;;;;;;6182285;23;19999;-78
2022/01/09 00:22:53;;;;;;;;;;;1.70;99.90;;;;;;6154850;23;19920;-78
2022/01/09 00:25:21;;;;;;;;;;;1.70;99.90;;;;;;6180793;23;20197;-78
2022/01/09 00:27:48;;;;;;;;;;;1.80;99.90;;;;;;6154399;23;19921;-78
2022/01/09 00:30:19;;;;;;;;;;;1.80;99.90;;;;;;6155583;23;19971;-78
2022/01/09 00:32:46;;;;;;;;;;;1.70;99.90;;;;;;6180662;23;19920;-78
2022/01/09 00:35:14;;;;;;;;;;;1.80;99.90;;;;;;6154366;23;19924;-78
2022/01/09 00:37:41;;;;;;;;;;;1.80;99.90;;;;;;6153888;23;20407;-78
2022/01/09 00:40:09;;;;;;;;;;;1.80;99.90;;;;;;6155130;23;19940;-78
2022/01/09 00:42:36;;;;;;;;;;;1.80;99.90;;;;;;6154563;23;19920;-78
2022/01/09 00:45:04;;;;;;;;;;;1.80;99.90;;;;;;6155245;23;19920;-78
2022/01/09 00:47:32;;;;;;;;;;;1.80;99.90;;;;;;6181226;23;20337;-78
2022/01/09 00:50:00;;;;;;;;;;;1.80;99.90;;;;;;6154812;23;20304;-78
2022/01/09 00:52:27;;;;;;;;;;;1.80;99.90;;;;;;6154552;23;19920;-78
2022/01/09 00:54:53;;;;;;;;;;;1.80;99.90;;;;;;6180637;23;20264;-75
2022/01/09 00:57:20;;;;;;;;;;;1.80;99.90;;;;;;6155666;23;20199;-75
2022/01/09 00:59:47;;;;;;;;;;;1.80;99.90;;;;;;6181013;23;19928;-75
2022/01/09 01:02:14;;;;;;;;;;;1.80;99.90;;;;;;6181010;23;20316;-76
2022/01/09 01:04:43;;;;;;;;;;;1.80;99.90;;;;;;6153599;23;19927;-75
2022/01/09 01:07:09;;;;;;;;;;;1.80;99.90;;;;;;6182095;23;20007;-76
2022/01/09 01:09:36;;;;;;;;;;;1.80;99.90;;;;;;6149947;23;19928;-76
2022/01/09 01:12:03;;;;;;;;;;;1.80;99.90;;;;;;6151750;23;19924;-76
2022/01/09 01:14:32;;;;;;;;;;;1.80;99.90;;;;;;6150762;23;19948;-76
2022/01/09 01:16:59;;;;;;;;;;;1.80;99.90;;;;;;6149959;23;19968;-75
2022/01/09 01:19:26;;;;;;;;;;;1.80;99.90;;;;;;6150307;23;19925;-75
2022/01/09 01:21:54;;;;;;;;;;;1.80;99.90;;;;;;6150010;23;19927;-76
2022/01/09 01:24:22;;;;;;;;;;;1.80;99.90;;;;;;6150781;23;19931;-76
2022/01/09 01:26:49;;;;;;;;;;;1.80;99.90;;;;;;6157003;23;19924;-76
2022/01/09 01:29:16;;;;;;;;;;;1.80;99.90;;;;;;6170378;23;19924;-76
2022/01/09 01:31:43;;;;;;;;;;;1.80;99.90;;;;;;6164164;23;19921;-76
2022/01/09 01:34:12;;;;;;;;;;;1.80;99.90;;;;;;6152046;23;19925;-76
2022/01/09 01:36:39;;;;;;;;;;;1.80;99.90;;;;;;6151989;23;19927;-76
2022/01/09 01:39:07;;;;;;;;;;;1.80;99.90;;;;;;6148905;23;19925;-76
2022/01/09 01:41:34;;;;;;;;;;;1.80;99.90;;;;;;6149139;23;19979;-76
2022/01/09 01:44:01;;;;;;;;;;;1.80;99.90;;;;;;6149682;23;19920;-75
2022/01/09 01:46:28;;;;;;;;;;;1.80;99.90;;;;;;6149246;23;19924;-75
2022/01/09 01:48:55;;;;;;;;;;;1.80;99.90;;;;;;6148985;23;20032;-76
2022/01/09 01:51:21;;;;;;;;;;;1.80;99.90;;;;;;6150550;23;19927;-75
2022/01/09 01:53:50;;;;;;;;;;;1.80;99.90;;;;;;6149915;23;20308;-76
2022/01/09 01:56:20;;;;;;;;;;;1.80;99.90;;;;;;6149623;23;20396;-76
2022/01/09 01:58:47;;;;;;;;;;;1.80;99.90;;;;;;6148665;23;19920;-76
2022/01/09 02:01:14;;;;;;;;;;;1.80;99.90;;;;;;6149043;23;20305;-76
2022/01/09 02:03:41;;;;;;;;;;;1.80;99.90;;;;;;6149564;23;19973;-75
2022/01/09 02:06:08;;;;;;;;;;;1.80;99.90;;;;;;6150257;23;19929;-76
2022/01/09 02:08:35;;;;;;;;;;;1.80;99.90;;;;;;6150797;23;19920;-75
2022/01/09 02:11:02;;;;;;;;;;;1.80;99.90;;;;;;6124504;23;19921;-75
2022/01/09 02:13:31;;;;;;;;;;;1.90;99.90;;;;;;6151283;23;20266;-76
2022/01/09 02:16:00;;;;;;;;;;;1.80;99.90;;;;;;6152795;23;19987;-76
2022/01/09 02:18:27;;;;;;;;;;;1.80;99.90;;;;;;6126468;23;19928;-76
2022/01/09 02:20:55;;;;;;;;;;;1.80;99.90;;;;;;6153067;23;19921;-76
2022/01/09 02:23:22;;;;;;;;;;;1.80;99.90;;;;;;6125714;23;19925;-76
2022/01/09 02:25:50;;;;;;;;;;;1.80;99.90;;;;;;6127140;23;19956;-76
2022/01/09 02:28:18;;;;;;;;;;;1.80;99.90;;;;;;6126771;23;20175;-76
2022/01/09 02:30:45;;;;;;;;;;;1.80;99.90;;;;;;6151220;23;19920;-76
2022/01/09 02:33:15;;;;;;;;;;;1.80;99.90;;;;;;6152654;23;19924;-76
2022/01/09 02:35:42;;;;;;;;;;;1.80;99.90;;;;;;6151403;23;20424;-76
2022/01/09 02:38:10;;;;;;;;;;;1.80;99.90;;;;;;6126771;23;19975;-75
2022/01/09 02:40:37;;;;;;;;;;;1.80;99.90;;;;;;6125889;23;19975;-76
2022/01/09 02:43:04;;;;;;;;;;;1.80;99.90;;;;;;6151672;23;19920;-76
2022/01/09 02:45:31;;;;;;;;;;;1.80;99.90;;;;;;6151036;23;19959;-76
2022/01/09 02:48:01;;;;;;;;;;;1.80;99.90;;;;;;6126111;23;20320;-76
2022/01/09 02:50:36;;;;;;;;;;;1.80;99.90;;;;;;6152555;23;19927;-76
2022/01/09 02:53:13;;;;;;;;;;;1.80;99.90;;;;;;6126307;23;19944;-76
2022/01/09 02:55:42;;;;;;;;;;;1.80;99.90;;;;;;6151411;23;19921;-76
2022/01/09 02:58:09;;;;;;;;;;;1.80;99.90;;;;;;6126708;23;19924;-76
2022/01/09 03:00:37;;;;;;;;;;;1.80;99.90;;;;;;6126126;23;20182;-76
2022/01/09 03:03:04;;;;;;;;;;;1.80;99.90;;;;;;6124810;23;19991;-76
2022/01/09 03:05:31;;;;;;;;;;;1.80;99.90;;;;;;6126389;23;20412;-76
2022/01/09 03:07:59;;;;;;;;;;;1.90;99.90;;;;;;6125585;23;20365;-76
2022/01/09 03:10:26;;;;;;;;;;;1.90;99.90;;;;;;6126531;23;19940;-76
2022/01/09 03:12:56;;;;;;;;;;;1.80;99.90;;;;;;6150143;23;20262;-78
2022/01/09 03:15:23;;;;;;;;;;;1.80;99.90;;;;;;6152070;23;19974;-78
2022/01/09 03:17:50;;;;;;;;;;;1.90;99.90;;;;;;6151925;23;19924;-78
2022/01/09 03:20:17;;;;;;;;;;;1.80;99.90;;;;;;6125069;23;20330;-78
2022/01/09 03:22:45;;;;;;;;;;;1.80;99.90;;;;;;6151512;23;19920;-78
2022/01/09 03:25:12;;;;;;;;;;;1.80;99.90;;;;;;6152299;23;19928;-78
2022/01/09 03:27:39;;;;;;;;;;;1.90;99.90;;;;;;6152245;23;19943;-79
2022/01/09 03:30:09;;;;;;;;;;;1.90;99.90;;;;;;6151778;23;19928;-78
2022/01/09 03:32:36;;;;;;;;;;;1.90;99.90;;;;;;6151546;23;20046;-76
2022/01/09 03:35:03;;;;;;;;;;;1.90;99.90;;;;;;6125690;23;19971;-76
2022/01/09 03:37:30;;;;;;;;;;;1.90;99.90;;;;;;6152054;23;19925;-76
2022/01/09 03:39:57;;;;;;;;;;;1.90;99.90;;;;;;6126209;23;19920;-76
2022/01/09 03:42:24;;;;;;;;;;;1.90;99.90;;;;;;6124943;23;19921;-76
2022/01/09 03:44:51;;;;;;;;;;;1.90;99.90;;;;;;6150910;23;19924;-76
2022/01/09 03:47:19;;;;;;;;;;;1.90;99.90;;;;;;6125881;23;19920;-76
2022/01/09 03:49:46;;;;;;;;;;;1.90;99.90;;;;;;6151949;23;19944;-76
2022/01/09 03:52:14;;;;;;;;;;;1.90;99.90;;;;;;6124792;23;19971;-76
2022/01/09 03:54:41;;;;;;;;;;;1.90;99.90;;;;;;6152485;23;19960;-76
2022/01/09 03:57:08;;;;;;;;;;;1.90;99.90;;;;;;6126182;23;20345;-76
2022/01/09 03:59:35;;;;;;;;;;;1.90;99.90;;;;;;6124795;23;19959;-76
2022/01/09 04:02:02;;;;;;;;;;;1.90;99.90;;;;;;6151047;23;19928;-76
2022/01/09 04:04:30;;;;;;;;;;;1.90;99.90;;;;;;6125265;23;19921;-76
2022/01/09 04:06:57;;;;;;;;;;;1.90;99.90;;;;;;6151939;23;19920;-76
2022/01/09 04:09:37;;;;;;;;;;;1.90;99.90;;;;;;6138831;23;19932;-77
2022/01/09 04:12:06;;;;;;;;;;;1.90;99.90;;;;;;6149014;23;20007;-76
2022/01/09 04:14:33;;;;;;;;;;;1.90;99.90;;;;;;6151533;23;19944;-76
2022/01/09 04:17:01;;;;;;;;;;;1.90;99.90;;;;;;6150119;23;19928;-76
2022/01/09 04:19:29;;;;;;;;;;;1.90;99.90;;;;;;6149667;23;19991;-76
2022/01/09 04:21:56;;;;;;;;;;;1.90;99.90;;;;;;6149421;23;20241;-76
2022/01/09 04:24:23;;;;;;;;;;;2.00;99.90;;;;;;6149983;23;19924;-76
2022/01/09 04:26:50;;;;;;;;;;;2.00;99.90;;;;;;6149803;23;19975;-76
2022/01/09 04:29:19;;;;;;;;;;;2.00;99.90;;;;;;6150978;23;20398;-76
2022/01/09 04:31:45;;;;;;;;;;;2.00;99.90;;;;;;6149675;23;19952;-76
2022/01/09 04:34:12;;;;;;;;;;;2.00;99.90;;;;;;6151428;23;19947;-76
2022/01/09 04:36:41;;;;;;;;;;;2.00;99.90;;;;;;6150299;23;19924;-76
2022/01/09 04:39:08;;;;;;;;;;;2.00;99.90;;;;;;6149290;23;19921;-76
2022/01/09 04:41:35;;;;;;;;;;;2.00;99.90;;;;;;6148840;23;20298;-76
2022/01/09 04:44:02;;;;;;;;;;;2.00;99.90;;;;;;6151350;23;20341;-76
2022/01/09 04:46:38;;;;;;;;;;;2.00;99.90;;;;;;6150893;23;20342;-76
2022/01/09 04:49:05;;;;;;;;;;;2.00;99.90;;;;;;6149674;23;20354;-76
2022/01/09 04:51:32;;;;;;;;;;;2.00;99.90;;;;;;6151353;23;19921;-76
2022/01/09 04:54:00;;;;;;;;;;;2.00;99.90;;;;;;6151249;23;19920;-76
2022/01/09 04:56:28;;;;;;;;;;;2.00;99.90;;;;;;6148815;23;20550;-76
2022/01/09 04:58:55;;;;;;;;;;;2.00;99.90;;;;;;6151503;23;19952;-76
2022/01/09 05:01:22;;;;;;;;;;;2.00;99.90;;;;;;6151702;23;20001;-76
2022/01/09 05:03:48;;;;;;;;;;;2.00;99.90;;;;;;6149064;23;19920;-76
2022/01/09 05:06:18;;;;;;;;;;;2.00;99.90;;;;;;6150410;23;20195;-76
2022/01/09 05:08:45;;;;;;;;;;;2.10;99.90;;;;;;6151200;23;19921;-76
2022/01/09 05:11:13;;;;;;;;;;;2.00;99.90;;;;;;6124252;23;19927;-76
2022/01/09 05:13:40;;;;;;;;;;;2.00;99.90;;;;;;6141794;23;19921;-78
2022/01/09 05:16:07;;;;;;;;;;;2.00;99.90;;;;;;6140971;23;19921;-78
2022/01/09 05:18:41;;;;;;;;;;;2.10;99.90;;;;;;6131226;23;19943;-78
2022/01/09 05:21:08;;;;;;;;;;;2.10;99.90;;;;;;6153304;23;19927;-78
2022/01/09 05:23:35;;;;;;;;;;;2.10;99.90;;;;;;6154289;23;19959;-78
2022/01/09 05:26:02;;;;;;;;;;;2.10;99.90;;;;;;6127723;23;19971;-79
2022/01/09 05:28:30;;;;;;;;;;;2.10;99.90;;;;;;6129041;23;20296;-78
2022/01/09 05:30:57;;;;;;;;;;;2.10;99.90;;;;;;6158445;23;19921;-79
2022/01/09 05:33:24;;;;;;;;;;;2.10;99.90;;;;;;6153939;23;19920;-78
2022/01/09 05:35:51;;;;;;;;;;;2.10;99.90;;;;;;6152415;23;20358;-78
2022/01/09 05:38:18;;;;;;;;;;;2.10;99.90;;;;;;6125079;23;19999;-78
2022/01/09 05:40:45;;;;;;;;;;;2.10;99.90;;;;;;6125296;23;20268;-78
2022/01/09 05:43:12;;;;;;;;;;;2.10;99.90;;;;;;6151326;23;19975;-78
2022/01/09 05:45:41;;;;;;;;;;;2.10;99.90;;;;;;6124937;23;20007;-78
2022/01/09 05:48:08;;;;;;;;;;;2.10;99.90;;;;;;6127090;23;19921;-78
2022/01/09 05:50:35;;;;;;;;;;;2.10;99.90;;;;;;6126793;23;19925;-78
2022/01/09 05:53:02;;;;;;;;;;;2.10;99.90;;;;;;6153009;23;19920;-78
2022/01/09 05:55:29;;;;;;;;;;;2.10;99.90;;;;;;6126308;23;19920;-78
2022/01/09 05:57:56;;;;;;;;;;;2.10;99.90;;;;;;6153400;23;19924;-78
2022/01/09 06:00:23;;;;;;;;;;;2.00;99.90;;;;;;6153403;23;20356;-77
2022/01/09 06:02:52;;;;;;;;;;;2.10;99.90;;;;;;6151117;23;20443;-78
2022/01/09 06:05:19;;;;;;;;;;;2.10;99.90;;;;;;6126402;23;19920;-78
2022/01/09 06:07:45;;;;;;;;;;;2.10;99.90;;;;;;6153597;23;19925;-78
2022/01/09 06:10:12;;;;;;;;;;;2.10;99.90;;;;;;6154169;23;19927;-77
2022/01/09 06:12:39;;;;;;;;;;;2.00;99.90;;;;;;6181871;23;19920;-77
2022/01/09 06:15:07;;;;;;;;;;;2.10;99.90;;;;;;6154919;23;19943;-77
2022/01/09 06:17:35;;;;;;;;;;;2.10;99.90;;;;;;6156691;23;19921;-77
2022/01/09 06:20:04;;;;;;;;;;;2.10;99.90;;;;;;6153554;23;19932;-77
2022/01/09 06:22:31;;;;;;;;;;;2.00;99.90;;;;;;6182480;23;19928;-77
2022/01/09 06:24:58;;;;;;;;;;;2.10;99.90;;;;;;6155470;23;20305;-77
2022/01/09 06:27:25;;;;;;;;;;;2.10;99.90;;;;;;6156580;23;20238;-77
2022/01/09 06:29:51;;;;;;;;;;;2.10;99.90;;;;;;6153381;23;20584;-76
2022/01/09 06:32:18;;;;;;;;;;;2.00;99.90;;;;;;6146546;23;19920;-78
2022/01/09 06:34:45;;;;;;;;;;;2.10;99.90;;;;;;6180114;23;19920;-77
2022/01/09 06:37:14;;;;;;;;;;;2.10;99.90;;;;;;6154340;23;20323;-78
2022/01/09 06:39:41;;;;;;;;;;;2.10;99.90;;;;;;6151945;23;19921;-78
2022/01/09 06:42:08;;;;;;;;;;;2.10;99.90;;;;;;6153724;23;19920;-78
2022/01/09 06:44:35;;;;;;;;;;;2.10;99.90;;;;;;6181036;23;19920;-78
2022/01/09 06:47:02;;;;;;;;;;;2.10;99.90;;;;;;6154473;23;19931;-77
2022/01/09 06:49:29;;;;;;;;;;;2.10;99.90;;;;;;6179680;23;19928;-78
2022/01/09 06:51:56;;;;;;;;;;;2.10;99.90;;;;;;6153563;23;19927;-77
2022/01/09 06:54:24;;;;;;;;;;;2.10;99.90;;;;;;6179875;23;19948;-77
2022/01/09 06:56:51;;;;;;;;;;;2.10;99.90;;;;;;6180207;23;19951;-77
2022/01/09 06:59:18;;;;;;;;;;;2.10;99.90;;;;;;6181205;23;19920;-77
2022/01/09 07:01:45;;;;;;;;;;;2.10;99.90;;;;;;6153936;23;19925;-77
2022/01/09 07:04:12;;;;;;;;;;;2.10;99.90;;;;;;6154737;23;19978;-78
2022/01/09 07:06:39;;;;;;;;;;;2.10;99.90;;;;;;6153830;23;19951;-78
2022/01/09 07:09:06;;;;;;;;;;;2.10;99.90;;;;;;6166266;23;19921;-78
2022/01/09 07:11:34;;;;;;;;;;;2.10;99.90;;;;;;6125090;23;20304;-78
2022/01/09 07:14:01;;;;;;;;;;;2.10;99.90;;;;;;6124226;23;19971;-78
2022/01/09 07:16:28;;;;;;;;;;;2.10;99.90;;;;;;6150470;23;19928;-78
2022/01/09 07:18:55;;;;;;;;;;;2.10;99.90;;;;;;6151788;23;19927;-78
2022/01/09 07:21:22;;;;;;;;;;;2.10;99.90;;;;;;6149927;23;19936;-78
2022/01/09 07:23:49;;;;;;;;;;;2.20;99.90;;;;;;6125107;23;20329;-78
2022/01/09 07:28:46;;;;;;;;;;;2.10;99.90;;;;;;6005753;23;19929;-78
2022/01/09 07:31:13;;;;;;;;;;;2.10;99.90;;;;;;6033765;23;20249;-80
2022/01/09 07:33:40;;;;;;;;;;;2.10;99.90;;;;;;6002066;23;19974;-80
2022/01/09 07:36:07;;;;;;;;;;;2.10;99.90;;;;;;5979152;23;20344;-78
2022/01/09 07:38:34;;;;;;;;;;;2.10;99.90;;;;;;5982832;23;19930;-78
2022/01/09 07:41:01;;;;;;;;;;;2.20;99.90;;;;;;5982175;23;19926;-80
2022/01/09 07:43:28;;;;;;;;;;;2.20;99.90;;;;;;5983314;23;20263;-79
2022/01/09 07:45:56;;;;;;;;;;;2.20;99.90;;;;;;6008557;23;19926;-80
2022/01/09 07:48:23;;;;;;;;;;;2.20;99.90;;;;;;6007595;23;19922;-80
2022/01/09 07:50:50;;;;;;;;;;;2.20;99.90;;;;;;6006212;23;19926;-79
2022/01/09 07:53:23;;;;;;;;;;;2.20;99.90;;;;;;5982642;23;20334;-78
2022/01/09 07:55:50;;;;;;;;;;;2.20;99.90;;;;;;6003065;23;20363;-80
2022/01/09 07:58:16;;;;;;;;;;;2.20;99.90;;;;;;5982502;23;19953;-78
2022/01/09 08:00:44;;;;;;;;;;;2.20;99.90;;;;;;5982962;23;19926;-79
2022/01/09 08:03:13;;;;;;;;;;;2.10;99.90;;;;;;6005973;23;20307;-80
2022/01/09 08:05:40;;;;;;;;;;;2.20;99.90;;;;;;5981349;23;19922;-79
2022/01/09 08:08:07;;;;;;;;;;;2.20;99.90;;;;;;5981045;23;19930;-80
2022/01/09 08:10:34;;;;;;;;;;;2.20;99.90;;;;;;5981633;23;19926;-80
2022/01/09 08:13:01;;;;;;;;;;;2.20;99.90;;;;;;6006247;23;19978;-79
2022/01/09 08:15:28;;;;;;;;;;;2.10;99.90;;;;;;5982872;23;19936;-77
2022/01/09 08:17:55;;;;;;;;;;;2.10;99.90;;;;;;5980851;23;19926;-77
2022/01/09 08:20:24;;;;;;;;;;;2.20;99.90;;;;;;6006272;23;19929;-77
2022/01/09 08:22:51;;;;;;;;;;;2.10;99.90;;;;;;5980557;23;20001;-77
2022/01/09 08:25:18;;;;;;;;;;;2.20;99.90;;;;;;6007755;23;20289;-79
2022/01/09 08:27:46;;;;;;;;;;;2.20;99.90;;;;;;6005777;23;19929;-80
2022/01/09 08:30:14;;;;;;;;;;;2.10;99.90;;;;;;6034613;23;20348;-79
2022/01/09 08:32:41;;;;;;;;;;;2.10;99.90;;;;;;6055900;23;19926;-80
2022/01/09 08:35:08;;;;;;;;;;;2.20;99.90;;;;;;6051501;23;19922;-80
2022/01/09 08:37:37;;;;;;;;;;;2.10;99.90;;;;;;6033159;23;19956;-79
2022/01/09 08:40:05;;;;;;;;;;;2.20;99.90;;;;;;6032211;23;19906;-78
2022/01/09 08:42:32;;;;;;;;;;;2.20;99.90;;;;;;6027803;23;19922;-79
2022/01/09 08:44:58;;;;;;;;;;;2.20;99.90;;;;;;6032519;23;20009;-79
2022/01/09 08:47:25;;;;;;;;;;;2.20;99.90;;;;;;6030705;23;19926;-78
2022/01/09 08:49:52;;;;;;;;;;;2.20;99.90;;;;;;6031997;23;19926;-78
2022/01/09 08:52:19;;;;;;;;;;;2.20;99.90;;;;;;6027880;23;19973;-78
2022/01/09 08:54:48;;;;;;;;;;;2.10;99.90;;;;;;6031053;23;20354;-78
2022/01/09 08:57:18;;;;;;;;;;;2.20;99.90;;;;;;6034328;23;20276;-79
2022/01/09 08:59:45;;;;;;;;;;;2.20;99.90;;;;;;6030284;23;20326;-78
2022/01/09 09:02:11;;;;;;;;;;;2.20;99.90;;;;;;6029475;23;20407;-78
2022/01/09 09:04:38;;;;;;;;;;;2.20;99.90;;;;;;6032136;23;19938;-79
2022/01/09 09:07:05;;;;;;;;;;;2.20;99.90;;;;;;6030577;23;19922;-77
2022/01/09 09:09:32;;;;;;;;;;;2.20;99.90;;;;;;6031922;23;19926;-79
2022/01/09 09:12:02;;;;;;;;;;;2.20;99.90;;;;;;6029036;23;19926;-79
2022/01/09 09:14:29;;;;;;;;;;;2.20;99.90;;;;;;6032737;23;19933;-79
2022/01/09 09:16:56;;;;;;;;;;;2.20;99.90;;;;;;6031265;23;20002;-78
2022/01/09 09:19:23;;;;;;;;;;;2.20;99.90;;;;;;6025026;23;19933;-78
2022/01/09 09:21:50;;;;;;;;;;;2.20;99.90;;;;;;6053875;23;19961;-78
2022/01/09 09:24:17;;;;;;;;;;;2.20;99.90;;;;;;6031910;23;19932;-78
2022/01/09 09:26:44;;;;;;;;;;;2.20;99.90;;;;;;6031533;23;19945;-79
2022/01/09 09:29:12;;;;;;;;;;;2.20;99.90;;;;;;6032067;23;20395;-79
2022/01/09 09:31:39;;;;;;;;;;;2.20;99.90;;;;;;6032182;23;19922;-79
2022/01/09 09:34:08;;;;;;;;;;;2.20;99.90;;;;;;6036387;23;20694;-79
2022/01/09 09:36:35;;;;;;;;;;;2.20;99.90;;;;;;6031134;23;20314;-80
2022/01/09 09:39:02;;;;;;;;;;;2.20;99.90;;;;;;6021040;23;19925;-79
2022/01/09 09:41:29;;;;;;;;;;;2.20;99.90;;;;;;6053183;23;19933;-79
2022/01/09 09:43:56;;;;;;;;;;;2.20;99.90;;;;;;6030556;23;20303;-79
2022/01/09 09:46:25;;;;;;;;;;;2.20;99.90;;;;;;6031168;23;19926;-78
2022/01/09 09:48:53;;;;;;;;;;;2.20;99.90;;;;;;6028790;23;19930;-80
2022/01/09 09:51:24;;;;;;;;;;;2.20;99.90;;;;;;6031931;23;19922;-79
2022/01/09 09:53:51;;;;;;;;;;;2.20;99.90;;;;;;6033014;23;20307;-80
2022/01/09 09:56:18;;;;;;;;;;;2.20;99.90;;;;;;6035754;23;20422;-79
2022/01/09 09:58:47;;;;;;;;;;;2.20;99.90;;;;;;6031964;23;19933;-79
2022/01/09 10:01:23;;;;;;;;;;;2.20;99.90;;;;;;6030595;23;19932;-79
2022/01/09 10:03:55;;;;;;;;;;;2.30;99.90;;;;;;6031069;23;19977;-79
2022/01/09 10:06:33;;;;;;;;;;;2.30;99.90;;;;;;6029217;23;20278;-79
2022/01/09 10:09:05;;;;;;;;;;;2.30;99.90;;;;;;6028351;23;19926;-78
2022/01/09 10:11:40;;;;;;;;;;;2.20;99.90;;;;;;6032087;23;19926;-78
2022/01/09 10:14:12;;;;;;;;;;;2.30;99.90;;;;;;6033368;23;20358;-80
2022/01/09 10:16:39;;;;;;;;;;;2.20;99.90;;;;;;6032458;23;19969;-79
2022/01/09 10:19:07;;;;;;;;;;;2.20;99.90;;;;;;6032869;23;20000;-79
2022/01/09 10:21:34;;;;;;;;;;;2.30;99.90;;;;;;6031817;23;20414;-79
2022/01/09 10:24:02;;;;;;;;;;;2.30;99.90;;;;;;6032017;23;20009;-79
2022/01/09 10:26:30;;;;;;;;;;;2.30;99.90;;;;;;6033357;23;20037;-79
2022/01/09 10:28:57;;;;;;;;;;;2.30;99.90;;;;;;6033984;23;20267;-79
2022/01/09 10:31:26;;;;;;;;;;;2.30;99.90;;;;;;6034457;23;20680;-80
2022/01/09 10:34:01;;;;;;;;;;;2.30;99.90;;;;;;6034301;23;19922;-79
2022/01/09 10:36:40;;;;;;;;;;;2.40;99.90;;;;;;6036536;23;19929;-81
2022/01/09 10:39:07;;;;;;;;;;;2.30;99.90;;;;;;6036510;23;19921;-79
2022/01/09 10:41:48;;;;;;;;;;;2.40;99.90;;;;;;6032702;23;19922;-80
2022/01/09 10:44:15;;;;;;;;;;;2.40;99.90;;;;;;6032189;23;20365;-81
2022/01/09 10:46:52;;;;;;;;;;;2.40;99.90;;;;;;6031156;23;20029;-79
2022/01/09 10:49:19;;;;;;;;;;;2.40;99.90;;;;;;6032688;23;19922;-78
2022/01/09 10:51:47;;;;;;;;;;;2.40;99.90;;;;;;6032879;23;19938;-78
2022/01/09 10:54:28;;;;;;;;;;;2.40;99.90;;;;;;6033881;23;19929;-78
2022/01/09 10:57:08;;;;;;;;;;;2.40;99.90;;;;;;6031989;23;19932;-78
2022/01/09 10:59:35;;;;;;;;;;;2.40;99.90;;;;;;6033050;23;19922;-78
2022/01/09 11:02:02;;;;;;;;;;;2.40;99.90;;;;;;6030429;23;19926;-78
2022/01/09 11:04:30;;;;;;;;;;;2.50;99.90;;;;;;6033546;23;19921;-79
2022/01/09 11:07:00;;;;;;;;;;;2.50;99.90;;;;;;6035029;23;19945;-79
2022/01/09 11:09:29;;;;;;;;;;;2.50;99.90;;;;;;6032219;23;19921;-80
2022/01/09 11:11:56;;;;;;;;;;;2.50;99.90;;;;;;6031179;23;19946;-79
2022/01/09 11:14:24;;;;;;;;;;;2.50;99.90;;;;;;6032106;23;20381;-79
2022/01/09 11:16:53;;;;;;;;;;;2.50;99.90;;;;;;6033782;23;19946;-78
2022/01/09 11:19:20;;;;;;;;;;;2.60;99.90;;;;;;6033347;23;19922;-79
2022/01/09 11:21:49;;;;;;;;;;;2.60;99.90;;;;;;6031931;23;20008;-79
2022/01/09 11:24:33;;;;;;;;;;;2.60;99.90;;;;;;6035643;23;19922;-79
2022/01/09 11:27:02;;;;;;;;;;;2.60;99.90;;;;;;6033637;23;19933;-78
2022/01/09 11:29:38;;;;;;;;;;;2.60;99.90;;;;;;6032881;23;19970;-79
2022/01/09 11:32:10;;;;;;;;;;;2.60;99.90;;;;;;6031599;23;20537;-79
2022/01/09 11:34:43;;;;;;;;;;;2.60;99.90;;;;;;6033446;23;20000;-77
2022/01/09 11:37:17;;;;;;;;;;;2.70;99.90;;;;;;6031786;23;19922;-78
2022/01/09 11:39:46;;;;;;;;;;;2.70;99.90;;;;;;6032999;23;19929;-78
2022/01/09 11:42:14;;;;;;;;;;;2.70;99.90;;;;;;6034167;23;19926;-78
2022/01/09 11:44:47;;;;;;;;;;;2.70;99.90;;;;;;6032544;23;19985;-77
2022/01/09 11:47:14;;;;;;;;;;;2.70;99.90;;;;;;6029820;23;19922;-78
2022/01/09 11:50:04;;;;;;;;;;;2.70;99.90;;;;;;6032384;23;19926;-78
2022/01/09 11:52:31;;;;;;;;;;;2.70;99.90;;;;;;6055695;23;19957;-78
2022/01/09 11:55:00;;;;;;;;;;;2.70;99.90;;;;;;6032403;23;19957;-78
2022/01/09 11:57:38;;;;;;;;;;;2.80;99.90;;;;;;6060723;23;19933;-78
2022/01/09 12:00:06;;;;;;;;;;;2.80;99.90;;;;;;6090878;23;19929;-78
2022/01/09 12:02:37;;;;;;;;;;;2.80;99.90;;;;;;6089637;23;20035;-78
2022/01/09 12:05:06;;;;;;;;;;;2.80;99.90;;;;;;6089271;23;19949;-78
2022/01/09 12:08:04;;;;;;;;;;;2.80;99.90;;;;;;6086651;23;20473;-78
2022/01/09 12:10:35;;;;;;;;;;;2.80;99.90;;;;;;6088866;23;19921;-78
2022/01/09 12:13:03;;;;;;;;;;;2.80;99.90;;;;;;6091190;23;19948;-78
2022/01/09 12:15:34;;;;;;;;;;;2.90;99.90;;;;;;6093367;23;20000;-78
2022/01/09 12:18:03;;;;;;;;;;;2.80;99.90;;;;;;6084060;23;20529;-78
2022/01/09 12:20:32;;;;;;;;;;;2.80;99.90;;;;;;6091039;23;19971;-78
2022/01/09 12:23:06;;;;;;;;;;;2.80;99.90;;;;;;6091475;23;19925;-78
2022/01/09 12:25:50;;;;;;;;;;;2.80;99.90;;;;;;6090677;23;20051;-76
2022/01/09 12:28:19;;;;;;;;;;;2.80;99.90;;;;;;6090698;23;19928;-78
2022/01/09 12:30:48;;;;;;;;;;;2.80;99.90;;;;;;6089313;23;19954;-78
2022/01/09 12:33:18;;;;;;;;;;;2.90;99.90;;;;;;6090902;23;19957;-78
2022/01/09 12:35:46;;;;;;;;;;;2.90;99.90;;;;;;6089847;23;19988;-79
2022/01/09 12:38:17;;;;;;;;;;;2.90;99.90;;;;;;6086623;23;20008;-79
2022/01/09 12:40:44;;;;;;;;;;;2.80;99.90;;;;;;6091429;23;20465;-79
2022/01/09 12:43:19;;;;;;;;;;;2.90;99.90;;;;;;6088186;23;19925;-78
2022/01/09 12:45:46;;;;;;;;;;;2.90;99.90;;;;;;6091139;23;19927;-78
2022/01/09 12:48:19;;;;;;;;;;;2.90;99.90;;;;;;6090454;23;19925;-79
2022/01/09 12:50:50;;;;;;;;;;;2.90;99.90;;;;;;6090563;23;20003;-79
2022/01/09 12:53:17;;;;;;;;;;;2.90;99.90;;;;;;6089119;23;19980;-80
2022/01/09 12:55:57;;;;;;;;;;;2.90;99.90;;;;;;6089198;23;19921;-78
2022/01/09 12:58:27;;;;;;;;;;;2.90;99.90;;;;;;6090554;23;20008;-78
2022/01/09 13:00:54;;;;;;;;;;;2.90;99.90;;;;;;6089638;23;19953;-78
2022/01/09 13:03:22;;;;;;;;;;;2.90;99.90;;;;;;6091425;23;19926;-81
2022/01/09 13:05:53;;;;;;;;;;;2.90;99.90;;;;;;6086154;23;19932;-78
2022/01/09 13:08:20;;;;;;;;;;;2.90;99.90;;;;;;6090788;23;19980;-78
2022/01/09 13:10:59;;;;;;;;;;;2.90;99.90;;;;;;6090364;23;19929;-79
2022/01/09 13:13:30;;;;;;;;;;;2.90;99.90;;;;;;6090441;23;19997;-79
2022/01/09 13:16:07;;;;;;;;;;;2.90;99.90;;;;;;6092277;23;19945;-78
2022/01/09 13:18:38;;;;;;;;;;;2.80;99.90;;;;;;6088759;23;19948;-79
2022/01/09 13:21:12;;;;;;;;;;;2.90;99.90;;;;;;6089984;23;20000;-79
2022/01/09 13:23:56;;;;;;;;;;;2.90;99.90;;;;;;6087470;23;19988;-79
2022/01/09 13:26:23;;;;;;;;;;;2.90;99.90;;;;;;6090786;23;20291;-79
2022/01/09 13:28:52;;;;;;;;;;;2.90;99.90;;;;;;6091133;23;20000;-79
2022/01/09 13:31:21;;;;;;;;;;;2.90;99.90;;;;;;6091878;23;19928;-79
2022/01/09 13:33:49;;;;;;;;;;;2.90;99.90;;;;;;6090831;23;20259;-79
2022/01/09 13:36:25;;;;;;;;;;;2.90;99.90;;;;;;6092606;23;20338;-79
2022/01/09 13:38:52;;;;;;;;;;;2.90;99.90;;;;;;6089883;23;19929;-79
2022/01/09 13:41:19;;;;;;;;;;;2.90;99.90;;;;;;6075747;23;19925;-88
2022/01/09 13:43:48;;;;;;;;;;;2.90;99.90;;;;;;6069383;23;19926;-87
2022/01/09 13:46:17;;;;;;;;;;;2.80;99.90;;;;;;6070580;23;19937;-83
2022/01/09 13:48:45;;;;;;;;;;;2.90;99.90;;;;;;6070398;23;19925;-84
2022/01/09 13:51:12;;;;;;;;;;;2.80;99.90;;;;;;6071128;23;20005;-84
2022/01/09 13:53:39;;;;;;;;;;;2.90;99.90;;;;;;6069939;23;19925;-83
2022/01/09 13:56:07;;;;;;;;;;;2.90;99.90;;;;;;6071973;23;19960;-86
2022/01/09 13:58:34;;;;;;;;;;;2.90;99.90;;;;;;6067552;23;19932;-83
2022/01/09 14:01:01;;;;;;;;;;;2.90;99.90;;;;;;6070716;23;20406;-84
2022/01/09 14:03:29;;;;;;;;;;;2.90;99.90;;;;;;6070487;23;20307;-83
2022/01/09 14:05:56;;;;;;;;;;;3.00;99.90;;;;;;6071873;23;20277;-86
2022/01/09 14:08:33;;;;;;;;;;;2.90;99.90;;;;;;6073241;23;20398;-83
2022/01/09 14:11:04;;;;;;;;;;;2.90;99.90;;;;;;6071710;23;19922;-86
2022/01/09 14:13:37;;;;;;;;;;;2.90;99.90;;;;;;6072509;23;19927;-83
2022/01/09 14:16:09;;;;;;;;;;;2.90;99.90;;;;;;6073612;23;20255;-88
2022/01/09 14:18:38;;;;;;;;;;;2.90;99.90;;;;;;6070726;23;19921;-85
2022/01/09 14:21:05;;;;;;;;;;;3.00;99.90;;;;;;6071752;23;19975;-87
2022/01/09 14:23:34;;;;;;;;;;;3.00;99.90;;;;;;6068828;23;19925;-87
2022/01/09 14:26:05;;;;;;;;;;;3.00;99.90;;;;;;6072444;23;19969;-85
2022/01/09 14:28:32;;;;;;;;;;;3.00;99.90;;;;;;6070710;23;19921;-83
2022/01/09 14:31:03;;;;;;;;;;;2.90;99.90;;;;;;6070354;23;20004;-85
2022/01/09 14:33:31;;;;;;;;;;;2.90;99.90;;;;;;6072856;23;19928;-83
2022/01/09 14:36:09;;;;;;;;;;;3.00;99.90;;;;;;6070305;23;19956;-83
2022/01/09 14:38:37;;;;;;;;;;;3.00;99.90;;;;;;6068835;23;19925;-84
2022/01/09 14:41:05;;;;;;;;;;;3.00;99.90;;;;;;6071126;23;20418;-83